sensor_id;sensor_type;location;lat;lon;timestamp;P1;durP1;ratioP1;P2;durP2;ratioP2
43118;SDS011;28729;49.838;8.650;2023-12-20T00:01:50;9.07;;;4.25;;
43118;SDS011;28729;49.838;8.650;2023-12-20T00:05:52;8.93;;;4.55;;
43118;SDS011;28729;49.838;8.650;2023-12-20T00:09:54;6.73;;;3.57;;
43118;SDS011;28729;49.838;8.650;2023-12-20T00:13:56;8.45;;;4.07;;
43118;SDS011;28729;49.838;8.650;2023-12-20T00:17:57;6.90;;;3.80;;
43118;SDS011;28729;49.838;8.650;2023-12-20T00:22:00;7.90;;;3.50;;
43118;SDS011;28729;49.838;8.650;2023-12-20T00:26:03;7.63;;;3.55;;
43118;SDS011;28729;49.838;8.650;2023-12-20T00:30:05;7.40;;;3.50;;
43118;SDS011;28729;49.838;8.650;2023-12-20T00:34:07;9.40;;;4.03;;
43118;SDS011;28729;49.838;8.650;2023-12-20T00:38:09;5.80;;;2.15;;
43118;SDS011;28729;49.838;8.650;2023-12-20T00:42:12;7.47;;;3.35;;
43118;SDS011;28729;49.838;8.650;2023-12-20T00:46:14;6.13;;;2.72;;
43118;SDS011;28729;49.838;8.650;2023-12-20T00:50:16;7.38;;;3.03;;
43118;SDS011;28729;49.838;8.650;2023-12-20T00:54:18;5.87;;;2.97;;
43118;SDS011;28729;49.838;8.650;2023-12-20T00:58:20;6.53;;;3.33;;
43118;SDS011;28729;49.838;8.650;2023-12-20T01:02:22;7.45;;;3.00;;
43118;SDS011;28729;49.838;8.650;2023-12-20T01:06:24;6.85;;;3.42;;
43118;SDS011;28729;49.838;8.650;2023-12-20T01:10:26;11.10;;;3.93;;
43118;SDS011;28729;49.838;8.650;2023-12-20T01:14:30;10.35;;;3.65;;
43118;SDS011;28729;49.838;8.650;2023-12-20T01:18:31;7.85;;;3.50;;
43118;SDS011;28729;49.838;8.650;2023-12-20T01:22:33;6.85;;;3.10;;
43118;SDS011;28729;49.838;8.650;2023-12-20T01:26:37;6.50;;;2.78;;
43118;SDS011;28729;49.838;8.650;2023-12-20T01:30:39;8.15;;;2.53;;
43118;SDS011;28729;49.838;8.650;2023-12-20T01:34:41;6.03;;;2.60;;
43118;SDS011;28729;49.838;8.650;2023-12-20T01:38:42;7.05;;;2.63;;
43118;SDS011;28729;49.838;8.650;2023-12-20T01:42:44;5.95;;;2.42;;
43118;SDS011;28729;49.838;8.650;2023-12-20T01:46:46;4.32;;;2.08;;
43118;SDS011;28729;49.838;8.650;2023-12-20T01:50:49;6.60;;;2.65;;
43118;SDS011;28729;49.838;8.650;2023-12-20T01:54:51;5.68;;;2.20;;
43118;SDS011;28729;49.838;8.650;2023-12-20T01:58:52;5.13;;;1.90;;
43118;SDS011;28729;49.838;8.650;2023-12-20T02:02:55;5.43;;;2.45;;
43118;SDS011;28729;49.838;8.650;2023-12-20T02:06:57;4.40;;;2.00;;
43118;SDS011;28729;49.838;8.650;2023-12-20T02:11:01;8.77;;;2.67;;
43118;SDS011;28729;49.838;8.650;2023-12-20T02:15:03;4.27;;;2.30;;
43118;SDS011;28729;49.838;8.650;2023-12-20T02:19:06;5.22;;;2.33;;
43118;SDS011;28729;49.838;8.650;2023-12-20T02:23:14;6.65;;;2.35;;
43118;SDS011;28729;49.838;8.650;2023-12-20T02:27:17;4.30;;;1.80;;
43118;SDS011;28729;49.838;8.650;2023-12-20T02:31:21;4.57;;;1.90;;
43118;SDS011;28729;49.838;8.650;2023-12-20T02:39:25;3.00;;;1.67;;
43118;SDS011;28729;49.838;8.650;2023-12-20T02:43:27;3.40;;;1.75;;
43118;SDS011;28729;49.838;8.650;2023-12-20T02:47:29;3.47;;;1.67;;
43118;SDS011;28729;49.838;8.650;2023-12-20T02:51:31;3.75;;;1.70;;
43118;SDS011;28729;49.838;8.650;2023-12-20T02:55:33;4.43;;;2.00;;
43118;SDS011;28729;49.838;8.650;2023-12-20T02:59:35;5.40;;;2.63;;
43118;SDS011;28729;49.838;8.650;2023-12-20T03:03:36;5.57;;;2.85;;
43118;SDS011;28729;49.838;8.650;2023-12-20T03:07:38;5.28;;;2.47;;
43118;SDS011;28729;49.838;8.650;2023-12-20T03:11:40;7.10;;;2.70;;
43118;SDS011;28729;49.838;8.650;2023-12-20T03:15:41;6.93;;;2.88;;
43118;SDS011;28729;49.838;8.650;2023-12-20T03:19:44;5.17;;;2.30;;
43118;SDS011;28729;49.838;8.650;2023-12-20T03:23:45;7.00;;;2.95;;
43118;SDS011;28729;49.838;8.650;2023-12-20T03:27:47;7.78;;;2.53;;
43118;SDS011;28729;49.838;8.650;2023-12-20T03:31:49;6.15;;;3.10;;
43118;SDS011;28729;49.838;8.650;2023-12-20T03:35:51;5.55;;;2.40;;
43118;SDS011;28729;49.838;8.650;2023-12-20T03:39:53;4.68;;;2.60;;
43118;SDS011;28729;49.838;8.650;2023-12-20T03:43:55;5.07;;;2.83;;
43118;SDS011;28729;49.838;8.650;2023-12-20T03:47:56;6.03;;;2.50;;
43118;SDS011;28729;49.838;8.650;2023-12-20T03:51:58;4.30;;;2.30;;
43118;SDS011;28729;49.838;8.650;2023-12-20T03:56:00;4.90;;;2.55;;
43118;SDS011;28729;49.838;8.650;2023-12-20T04:00:02;7.13;;;2.63;;
43118;SDS011;28729;49.838;8.650;2023-12-20T04:04:12;6.05;;;2.90;;
43118;SDS011;28729;49.838;8.650;2023-12-20T04:08:15;7.53;;;3.17;;
43118;SDS011;28729;49.838;8.650;2023-12-20T04:12:17;7.83;;;3.63;;
43118;SDS011;28729;49.838;8.650;2023-12-20T04:16:18;7.15;;;2.88;;
43118;SDS011;28729;49.838;8.650;2023-12-20T04:20:20;10.52;;;3.13;;
43118;SDS011;28729;49.838;8.650;2023-12-20T04:24:22;7.70;;;3.25;;
43118;SDS011;28729;49.838;8.650;2023-12-20T04:28:24;7.80;;;3.67;;
43118;SDS011;28729;49.838;8.650;2023-12-20T04:32:26;9.32;;;3.78;;
43118;SDS011;28729;49.838;8.650;2023-12-20T04:36:28;9.65;;;3.80;;
43118;SDS011;28729;49.838;8.650;2023-12-20T04:40:31;7.25;;;3.28;;
43118;SDS011;28729;49.838;8.650;2023-12-20T04:44:33;7.55;;;3.20;;
43118;SDS011;28729;49.838;8.650;2023-12-20T04:48:35;5.60;;;3.30;;
43118;SDS011;28729;49.838;8.650;2023-12-20T04:52:37;7.07;;;3.57;;
43118;SDS011;28729;49.838;8.650;2023-12-20T04:56:39;9.45;;;3.10;;
43118;SDS011;28729;49.838;8.650;2023-12-20T05:00:40;8.10;;;3.63;;
43118;SDS011;28729;49.838;8.650;2023-12-20T05:04:42;10.27;;;3.13;;
43118;SDS011;28729;49.838;8.650;2023-12-20T05:08:44;9.15;;;3.20;;
43118;SDS011;28729;49.838;8.650;2023-12-20T05:12:46;8.20;;;3.38;;
43118;SDS011;28729;49.838;8.650;2023-12-20T05:16:48;7.10;;;3.25;;
43118;SDS011;28729;49.838;8.650;2023-12-20T05:20:50;8.13;;;3.33;;
43118;SDS011;28729;49.838;8.650;2023-12-20T05:24:55;7.88;;;3.60;;
43118;SDS011;28729;49.838;8.650;2023-12-20T05:28:57;6.75;;;3.63;;
43118;SDS011;28729;49.838;8.650;2023-12-20T05:32:58;9.38;;;4.05;;
43118;SDS011;28729;49.838;8.650;2023-12-20T05:37:00;7.90;;;4.03;;
43118;SDS011;28729;49.838;8.650;2023-12-20T05:45:05;8.93;;;3.60;;
43118;SDS011;28729;49.838;8.650;2023-12-20T05:49:07;8.82;;;3.72;;
43118;SDS011;28729;49.838;8.650;2023-12-20T05:53:09;8.20;;;3.70;;
43118;SDS011;28729;49.838;8.650;2023-12-20T05:57:11;8.82;;;3.50;;
43118;SDS011;28729;49.838;8.650;2023-12-20T06:01:14;8.18;;;3.45;;
43118;SDS011;28729;49.838;8.650;2023-12-20T06:05:16;7.55;;;3.40;;
43118;SDS011;28729;49.838;8.650;2023-12-20T06:09:18;8.07;;;3.17;;
43118;SDS011;28729;49.838;8.650;2023-12-20T06:13:20;6.03;;;3.25;;
43118;SDS011;28729;49.838;8.650;2023-12-20T06:17:22;6.50;;;2.75;;
43118;SDS011;28729;49.838;8.650;2023-12-20T06:21:24;5.63;;;2.55;;
43118;SDS011;28729;49.838;8.650;2023-12-20T06:25:26;6.53;;;2.83;;
43118;SDS011;28729;49.838;8.650;2023-12-20T06:29:28;4.43;;;2.10;;
43118;SDS011;28729;49.838;8.650;2023-12-20T06:33:30;5.22;;;2.60;;
43118;SDS011;28729;49.838;8.650;2023-12-20T06:37:32;5.10;;;2.35;;
43118;SDS011;28729;49.838;8.650;2023-12-20T06:41:34;6.53;;;3.05;;
43118;SDS011;28729;49.838;8.650;2023-12-20T06:45:36;6.20;;;3.10;;
43118;SDS011;28729;49.838;8.650;2023-12-20T06:49:37;7.35;;;3.25;;
43118;SDS011;28729;49.838;8.650;2023-12-20T06:53:39;10.93;;;4.57;;
43118;SDS011;28729;49.838;8.650;2023-12-20T06:57:41;6.18;;;3.13;;
43118;SDS011;28729;49.838;8.650;2023-12-20T07:01:47;10.23;;;3.47;;
43118;SDS011;28729;49.838;8.650;2023-12-20T07:05:49;8.90;;;3.45;;
43118;SDS011;28729;49.838;8.650;2023-12-20T07:09:51;11.32;;;2.65;;
43118;SDS011;28729;49.838;8.650;2023-12-20T07:13:53;9.40;;;3.53;;
43118;SDS011;28729;49.838;8.650;2023-12-20T07:17:55;7.07;;;2.70;;
43118;SDS011;28729;49.838;8.650;2023-12-20T07:21:57;9.73;;;3.40;;
43118;SDS011;28729;49.838;8.650;2023-12-20T07:25:59;11.75;;;3.28;;
43118;SDS011;28729;49.838;8.650;2023-12-20T07:30:01;5.97;;;3.07;;
43118;SDS011;28729;49.838;8.650;2023-12-20T07:34:03;5.95;;;2.88;;
43118;SDS011;28729;49.838;8.650;2023-12-20T07:38:05;10.25;;;3.22;;
43118;SDS011;28729;49.838;8.650;2023-12-20T07:42:08;8.18;;;3.08;;
43118;SDS011;28729;49.838;8.650;2023-12-20T07:46:10;7.00;;;2.53;;
43118;SDS011;28729;49.838;8.650;2023-12-20T07:50:12;7.07;;;2.93;;
43118;SDS011;28729;49.838;8.650;2023-12-20T07:54:14;6.13;;;2.72;;
43118;SDS011;28729;49.838;8.650;2023-12-20T07:58:16;12.07;;;3.30;;
43118;SDS011;28729;49.838;8.650;2023-12-20T08:02:18;7.25;;;2.83;;
43118;SDS011;28729;49.838;8.650;2023-12-20T08:06:19;9.45;;;2.90;;
43118;SDS011;28729;49.838;8.650;2023-12-20T08:10:23;5.80;;;2.60;;
43118;SDS011;28729;49.838;8.650;2023-12-20T08:14:25;4.28;;;2.13;;
43118;SDS011;28729;49.838;8.650;2023-12-20T08:18:27;4.95;;;2.53;;
43118;SDS011;28729;49.838;8.650;2023-12-20T08:22:29;6.83;;;2.80;;
43118;SDS011;28729;49.838;8.650;2023-12-20T08:26:31;9.65;;;2.83;;
43118;SDS011;28729;49.838;8.650;2023-12-20T08:30:33;7.45;;;2.55;;
43118;SDS011;28729;49.838;8.650;2023-12-20T08:34:35;6.20;;;2.90;;
43118;SDS011;28729;49.838;8.650;2023-12-20T08:38:37;10.20;;;2.93;;
43118;SDS011;28729;49.838;8.650;2023-12-20T08:42:39;5.18;;;2.15;;
43118;SDS011;28729;49.838;8.650;2023-12-20T08:46:41;7.07;;;2.28;;
43118;SDS011;28729;49.838;8.650;2023-12-20T08:50:43;5.35;;;2.47;;
43118;SDS011;28729;49.838;8.650;2023-12-20T08:54:45;5.82;;;2.55;;
43118;SDS011;28729;49.838;8.650;2023-12-20T08:58:47;7.75;;;2.58;;
43118;SDS011;28729;49.838;8.650;2023-12-20T09:02:49;10.55;;;2.63;;
43118;SDS011;28729;49.838;8.650;2023-12-20T09:06:50;6.25;;;1.90;;
43118;SDS011;28729;49.838;8.650;2023-12-20T09:10:52;7.75;;;2.17;;
43118;SDS011;28729;49.838;8.650;2023-12-20T09:14:54;7.30;;;2.28;;
43118;SDS011;28729;49.838;8.650;2023-12-20T09:18:56;6.20;;;2.60;;
43118;SDS011;28729;49.838;8.650;2023-12-20T09:22:59;6.60;;;2.67;;
43118;SDS011;28729;49.838;8.650;2023-12-20T09:27:01;4.47;;;1.92;;
43118;SDS011;28729;49.838;8.650;2023-12-20T09:35:06;7.50;;;2.88;;
43118;SDS011;28729;49.838;8.650;2023-12-20T09:39:10;11.85;;;2.60;;
43118;SDS011;28729;49.838;8.650;2023-12-20T09:43:13;6.45;;;3.17;;
43118;SDS011;28729;49.838;8.650;2023-12-20T09:47:19;11.70;;;2.75;;
43118;SDS011;28729;49.838;8.650;2023-12-20T09:51:25;6.13;;;2.30;;
43118;SDS011;28729;49.838;8.650;2023-12-20T09:55:27;4.45;;;2.40;;
43118;SDS011;28729;49.838;8.650;2023-12-20T09:59:31;5.65;;;3.15;;
43118;SDS011;28729;49.838;8.650;2023-12-20T10:03:33;8.70;;;2.78;;
43118;SDS011;28729;49.838;8.650;2023-12-20T10:07:36;9.02;;;2.90;;
43118;SDS011;28729;49.838;8.650;2023-12-20T10:11:38;8.82;;;2.85;;
43118;SDS011;28729;49.838;8.650;2023-12-20T10:19:43;5.97;;;2.08;;
43118;SDS011;28729;49.838;8.650;2023-12-20T10:23:45;4.00;;;2.23;;
43118;SDS011;28729;49.838;8.650;2023-12-20T10:27:47;5.32;;;1.92;;
43118;SDS011;28729;49.838;8.650;2023-12-20T10:31:52;11.13;;;2.17;;
43118;SDS011;28729;49.838;8.650;2023-12-20T10:36:00;5.60;;;2.00;;
43118;SDS011;28729;49.838;8.650;2023-12-20T10:40:02;7.47;;;2.03;;
43118;SDS011;28729;49.838;8.650;2023-12-20T10:44:05;7.55;;;2.25;;
43118;SDS011;28729;49.838;8.650;2023-12-20T10:48:07;5.15;;;2.28;;
43118;SDS011;28729;49.838;8.650;2023-12-20T10:52:12;7.57;;;2.58;;
43118;SDS011;28729;49.838;8.650;2023-12-20T10:56:16;4.73;;;1.90;;
43118;SDS011;28729;49.838;8.650;2023-12-20T11:00:19;5.63;;;1.67;;
43118;SDS011;28729;49.838;8.650;2023-12-20T11:04:28;7.07;;;2.13;;
43118;SDS011;28729;49.838;8.650;2023-12-20T11:08:39;10.68;;;2.78;;
43118;SDS011;28729;49.838;8.650;2023-12-20T11:12:57;6.13;;;2.17;;
43118;SDS011;28729;49.838;8.650;2023-12-20T11:17:13;12.65;;;2.80;;
43118;SDS011;28729;49.838;8.650;2023-12-20T11:21:18;10.18;;;2.20;;
43118;SDS011;28729;49.838;8.650;2023-12-20T11:29:29;5.45;;;1.95;;
43118;SDS011;28729;49.838;8.650;2023-12-20T11:33:38;7.60;;;2.25;;
43118;SDS011;28729;49.838;8.650;2023-12-20T11:37:41;5.90;;;2.28;;
43118;SDS011;28729;49.838;8.650;2023-12-20T11:41:45;10.45;;;2.17;;
43118;SDS011;28729;49.838;8.650;2023-12-20T11:45:49;7.35;;;2.30;;
43118;SDS011;28729;49.838;8.650;2023-12-20T11:49:52;8.95;;;2.20;;
43118;SDS011;28729;49.838;8.650;2023-12-20T11:53:54;5.15;;;2.45;;
43118;SDS011;28729;49.838;8.650;2023-12-20T11:57:56;6.05;;;3.08;;
43118;SDS011;28729;49.838;8.650;2023-12-20T12:01:58;8.77;;;2.67;;
43118;SDS011;28729;49.838;8.650;2023-12-20T12:06:03;5.15;;;2.15;;
43118;SDS011;28729;49.838;8.650;2023-12-20T12:10:06;6.50;;;2.40;;
43118;SDS011;28729;49.838;8.650;2023-12-20T12:18:15;9.15;;;2.60;;
43118;SDS011;28729;49.838;8.650;2023-12-20T12:22:18;8.63;;;2.53;;
43118;SDS011;28729;49.838;8.650;2023-12-20T12:26:21;11.45;;;3.42;;
43118;SDS011;28729;49.838;8.650;2023-12-20T12:30:26;8.82;;;3.17;;
43118;SDS011;28729;49.838;8.650;2023-12-20T12:34:35;8.27;;;2.50;;
43118;SDS011;28729;49.838;8.650;2023-12-20T12:38:37;9.93;;;2.50;;
43118;SDS011;28729;49.838;8.650;2023-12-20T12:42:40;7.22;;;2.53;;
43118;SDS011;28729;49.838;8.650;2023-12-20T12:46:48;8.98;;;3.00;;
43118;SDS011;28729;49.838;8.650;2023-12-20T12:50:52;8.50;;;2.92;;
43118;SDS011;28729;49.838;8.650;2023-12-20T12:54:59;5.68;;;2.15;;
43118;SDS011;28729;49.838;8.650;2023-12-20T12:59:01;5.43;;;2.20;;
43118;SDS011;28729;49.838;8.650;2023-12-20T13:03:03;12.30;;;3.00;;
43118;SDS011;28729;49.838;8.650;2023-12-20T13:07:05;8.90;;;3.03;;
43118;SDS011;28729;49.838;8.650;2023-12-20T13:11:07;5.80;;;2.60;;
43118;SDS011;28729;49.838;8.650;2023-12-20T13:15:09;5.03;;;2.47;;
43118;SDS011;28729;49.838;8.650;2023-12-20T13:19:11;7.25;;;3.05;;
43118;SDS011;28729;49.838;8.650;2023-12-20T13:23:13;7.17;;;2.93;;
43118;SDS011;28729;49.838;8.650;2023-12-20T13:27:15;9.50;;;2.60;;
43118;SDS011;28729;49.838;8.650;2023-12-20T13:31:16;8.32;;;2.78;;
43118;SDS011;28729;49.838;8.650;2023-12-20T13:35:18;11.80;;;2.75;;
43118;SDS011;28729;49.838;8.650;2023-12-20T13:39:20;4.77;;;2.20;;
43118;SDS011;28729;49.838;8.650;2023-12-20T13:43:23;7.13;;;1.83;;
43118;SDS011;28729;49.838;8.650;2023-12-20T13:47:26;5.00;;;2.22;;
43118;SDS011;28729;49.838;8.650;2023-12-20T13:51:27;6.33;;;2.23;;
43118;SDS011;28729;49.838;8.650;2023-12-20T13:55:30;5.70;;;1.90;;
43118;SDS011;28729;49.838;8.650;2023-12-20T13:59:32;5.23;;;1.80;;
43118;SDS011;28729;49.838;8.650;2023-12-20T14:03:34;11.27;;;2.72;;
43118;SDS011;28729;49.838;8.650;2023-12-20T14:07:36;5.95;;;2.20;;
43118;SDS011;28729;49.838;8.650;2023-12-20T14:11:38;7.95;;;3.65;;
43118;SDS011;28729;49.838;8.650;2023-12-20T14:15:42;6.35;;;2.38;;
43118;SDS011;28729;49.838;8.650;2023-12-20T14:19:44;7.57;;;1.88;;
43118;SDS011;28729;49.838;8.650;2023-12-20T14:23:46;4.68;;;2.17;;
43118;SDS011;28729;49.838;8.650;2023-12-20T14:27:50;7.13;;;2.08;;
43118;SDS011;28729;49.838;8.650;2023-12-20T14:31:52;12.37;;;1.97;;
43118;SDS011;28729;49.838;8.650;2023-12-20T14:35:54;6.43;;;1.87;;
43118;SDS011;28729;49.838;8.650;2023-12-20T14:39:56;4.07;;;1.77;;
43118;SDS011;28729;49.838;8.650;2023-12-20T14:43:58;9.23;;;2.05;;
43118;SDS011;28729;49.838;8.650;2023-12-20T14:48:01;4.68;;;1.92;;
43118;SDS011;28729;49.838;8.650;2023-12-20T14:52:03;7.75;;;2.30;;
43118;SDS011;28729;49.838;8.650;2023-12-20T14:56:06;9.73;;;2.15;;
43118;SDS011;28729;49.838;8.650;2023-12-20T15:00:10;8.10;;;1.83;;
43118;SDS011;28729;49.838;8.650;2023-12-20T15:04:18;4.18;;;2.05;;
43118;SDS011;28729;49.838;8.650;2023-12-20T15:08:23;5.72;;;1.70;;
43118;SDS011;28729;49.838;8.650;2023-12-20T15:12:25;6.35;;;1.58;;
43118;SDS011;28729;49.838;8.650;2023-12-20T15:16:27;4.33;;;1.70;;
43118;SDS011;28729;49.838;8.650;2023-12-20T15:20:29;6.00;;;2.63;;
43118;SDS011;28729;49.838;8.650;2023-12-20T15:24:31;5.32;;;1.45;;
43118;SDS011;28729;49.838;8.650;2023-12-20T15:28:40;5.97;;;1.80;;
43118;SDS011;28729;49.838;8.650;2023-12-20T15:32:42;5.87;;;1.50;;
43118;SDS011;28729;49.838;8.650;2023-12-20T15:36:43;10.00;;;1.45;;
43118;SDS011;28729;49.838;8.650;2023-12-20T15:40:45;4.67;;;1.13;;
43118;SDS011;28729;49.838;8.650;2023-12-20T15:44:47;6.93;;;1.60;;
43118;SDS011;28729;49.838;8.650;2023-12-20T15:48:49;7.40;;;1.67;;
43118;SDS011;28729;49.838;8.650;2023-12-20T15:52:53;6.65;;;1.60;;
43118;SDS011;28729;49.838;8.650;2023-12-20T15:56:55;7.03;;;2.00;;
43118;SDS011;28729;49.838;8.650;2023-12-20T16:00:57;9.10;;;1.57;;
43118;SDS011;28729;49.838;8.650;2023-12-20T16:04:59;5.93;;;1.43;;
43118;SDS011;28729;49.838;8.650;2023-12-20T16:09:01;11.30;;;2.00;;
43118;SDS011;28729;49.838;8.650;2023-12-20T16:13:03;5.28;;;1.85;;
43118;SDS011;28729;49.838;8.650;2023-12-20T16:17:06;7.70;;;1.92;;
43118;SDS011;28729;49.838;8.650;2023-12-20T16:21:08;8.07;;;1.77;;
43118;SDS011;28729;49.838;8.650;2023-12-20T16:25:10;4.40;;;2.40;;
43118;SDS011;28729;49.838;8.650;2023-12-20T16:29:12;7.13;;;1.90;;
43118;SDS011;28729;49.838;8.650;2023-12-20T16:33:15;8.93;;;2.60;;
43118;SDS011;28729;49.838;8.650;2023-12-20T16:37:17;6.10;;;2.20;;
43118;SDS011;28729;49.838;8.650;2023-12-20T16:41:20;6.90;;;2.92;;
43118;SDS011;28729;49.838;8.650;2023-12-20T16:45:22;5.38;;;2.50;;
43118;SDS011;28729;49.838;8.650;2023-12-20T16:49:24;7.80;;;2.00;;
43118;SDS011;28729;49.838;8.650;2023-12-20T16:53:26;6.23;;;2.60;;
43118;SDS011;28729;49.838;8.650;2023-12-20T16:57:29;7.70;;;2.67;;
43118;SDS011;28729;49.838;8.650;2023-12-20T17:01:32;8.57;;;2.40;;
43118;SDS011;28729;49.838;8.650;2023-12-20T17:05:34;7.55;;;2.53;;
43118;SDS011;28729;49.838;8.650;2023-12-20T17:09:36;6.53;;;2.33;;
43118;SDS011;28729;49.838;8.650;2023-12-20T17:13:38;5.68;;;2.40;;
43118;SDS011;28729;49.838;8.650;2023-12-20T17:17:40;12.50;;;2.55;;
43118;SDS011;28729;49.838;8.650;2023-12-20T17:21:45;6.93;;;2.03;;
43118;SDS011;28729;49.838;8.650;2023-12-20T17:25:47;10.02;;;2.25;;
43118;SDS011;28729;49.838;8.650;2023-12-20T17:29:48;9.45;;;3.20;;
43118;SDS011;28729;49.838;8.650;2023-12-20T17:33:50;10.07;;;2.63;;
43118;SDS011;28729;49.838;8.650;2023-12-20T17:37:52;9.10;;;2.55;;
43118;SDS011;28729;49.838;8.650;2023-12-20T17:41:54;5.90;;;2.63;;
43118;SDS011;28729;49.838;8.650;2023-12-20T17:45:57;10.90;;;2.65;;
43118;SDS011;28729;49.838;8.650;2023-12-20T17:49:58;8.35;;;3.13;;
43118;SDS011;28729;49.838;8.650;2023-12-20T17:54:00;8.20;;;3.33;;
43118;SDS011;28729;49.838;8.650;2023-12-20T17:58:04;12.45;;;2.55;;
43118;SDS011;28729;49.838;8.650;2023-12-20T18:02:07;4.30;;;2.55;;
43118;SDS011;28729;49.838;8.650;2023-12-20T18:06:10;9.10;;;2.85;;
43118;SDS011;28729;49.838;8.650;2023-12-20T18:10:12;14.38;;;2.80;;
43118;SDS011;28729;49.838;8.650;2023-12-20T18:14:14;10.38;;;2.80;;
43118;SDS011;28729;49.838;8.650;2023-12-20T18:18:16;9.68;;;2.88;;
43118;SDS011;28729;49.838;8.650;2023-12-20T18:22:20;7.05;;;2.60;;
43118;SDS011;28729;49.838;8.650;2023-12-20T18:26:22;5.40;;;2.78;;
43118;SDS011;28729;49.838;8.650;2023-12-20T18:30:24;12.35;;;3.72;;
43118;SDS011;28729;49.838;8.650;2023-12-20T18:34:26;8.97;;;3.33;;
43118;SDS011;28729;49.838;8.650;2023-12-20T18:38:28;8.13;;;2.90;;
43118;SDS011;28729;49.838;8.650;2023-12-20T18:42:31;12.70;;;2.45;;
43118;SDS011;28729;49.838;8.650;2023-12-20T18:46:34;9.23;;;2.50;;
43118;SDS011;28729;49.838;8.650;2023-12-20T18:50:36;7.07;;;2.85;;
43118;SDS011;28729;49.838;8.650;2023-12-20T18:54:39;7.05;;;2.45;;
43118;SDS011;28729;49.838;8.650;2023-12-20T18:58:40;4.20;;;1.70;;
43118;SDS011;28729;49.838;8.650;2023-12-20T19:02:47;10.40;;;2.45;;
43118;SDS011;28729;49.838;8.650;2023-12-20T19:10:59;5.85;;;2.80;;
43118;SDS011;28729;49.838;8.650;2023-12-20T19:15:01;6.15;;;2.60;;
43118;SDS011;28729;49.838;8.650;2023-12-20T19:19:03;8.53;;;2.70;;
43118;SDS011;28729;49.838;8.650;2023-12-20T19:23:05;8.25;;;3.28;;
43118;SDS011;28729;49.838;8.650;2023-12-20T19:27:11;8.65;;;2.30;;
43118;SDS011;28729;49.838;8.650;2023-12-20T19:31:13;4.72;;;1.80;;
43118;SDS011;28729;49.838;8.650;2023-12-20T19:35:17;7.57;;;2.60;;
43118;SDS011;28729;49.838;8.650;2023-12-20T19:39:19;10.50;;;2.60;;
43118;SDS011;28729;49.838;8.650;2023-12-20T19:43:21;8.05;;;3.03;;
43118;SDS011;28729;49.838;8.650;2023-12-20T19:51:25;8.10;;;3.45;;
43118;SDS011;28729;49.838;8.650;2023-12-20T19:55:27;5.75;;;2.67;;
43118;SDS011;28729;49.838;8.650;2023-12-20T19:59:29;8.13;;;2.30;;
43118;SDS011;28729;49.838;8.650;2023-12-20T20:03:34;6.37;;;2.33;;
43118;SDS011;28729;49.838;8.650;2023-12-20T20:07:35;11.23;;;2.78;;
43118;SDS011;28729;49.838;8.650;2023-12-20T20:11:37;7.90;;;2.10;;
43118;SDS011;28729;49.838;8.650;2023-12-20T20:15:40;6.18;;;2.55;;
43118;SDS011;28729;49.838;8.650;2023-12-20T20:19:42;6.93;;;2.28;;
43118;SDS011;28729;49.838;8.650;2023-12-20T20:23:44;8.82;;;2.60;;
43118;SDS011;28729;49.838;8.650;2023-12-20T20:27:45;7.68;;;2.47;;
43118;SDS011;28729;49.838;8.650;2023-12-20T20:31:48;13.68;;;3.13;;
43118;SDS011;28729;49.838;8.650;2023-12-20T20:35:50;8.20;;;2.57;;
43118;SDS011;28729;49.838;8.650;2023-12-20T20:39:52;6.90;;;2.45;;
43118;SDS011;28729;49.838;8.650;2023-12-20T20:43:54;8.37;;;2.83;;
43118;SDS011;28729;49.838;8.650;2023-12-20T20:47:55;6.53;;;3.05;;
43118;SDS011;28729;49.838;8.650;2023-12-20T20:52:11;8.45;;;2.25;;
43118;SDS011;28729;49.838;8.650;2023-12-20T20:56:13;8.73;;;2.53;;
43118;SDS011;28729;49.838;8.650;2023-12-20T21:00:16;7.50;;;2.22;;
43118;SDS011;28729;49.838;8.650;2023-12-20T21:04:17;4.68;;;2.17;;
43118;SDS011;28729;49.838;8.650;2023-12-20T21:08:19;4.63;;;2.00;;
43118;SDS011;28729;49.838;8.650;2023-12-20T21:12:22;5.03;;;2.10;;
43118;SDS011;28729;49.838;8.650;2023-12-20T21:16:26;7.03;;;1.95;;
43118;SDS011;28729;49.838;8.650;2023-12-20T21:20:29;5.35;;;2.10;;
43118;SDS011;28729;49.838;8.650;2023-12-20T21:24:32;4.43;;;2.20;;
43118;SDS011;28729;49.838;8.650;2023-12-20T21:28:34;6.30;;;1.83;;
43118;SDS011;28729;49.838;8.650;2023-12-20T21:32:36;3.13;;;1.63;;
43118;SDS011;28729;49.838;8.650;2023-12-20T21:36:40;7.30;;;2.00;;
43118;SDS011;28729;49.838;8.650;2023-12-20T21:40:44;4.18;;;1.95;;
43118;SDS011;28729;49.838;8.650;2023-12-20T21:44:46;3.80;;;1.92;;
43118;SDS011;28729;49.838;8.650;2023-12-20T21:48:47;4.70;;;1.50;;
43118;SDS011;28729;49.838;8.650;2023-12-20T21:52:49;5.38;;;2.03;;
43118;SDS011;28729;49.838;8.650;2023-12-20T21:56:52;7.13;;;2.13;;
43118;SDS011;28729;49.838;8.650;2023-12-20T22:00:55;4.60;;;2.00;;
43118;SDS011;28729;49.838;8.650;2023-12-20T22:05:06;5.93;;;2.40;;
43118;SDS011;28729;49.838;8.650;2023-12-20T22:09:08;5.97;;;2.28;;
43118;SDS011;28729;49.838;8.650;2023-12-20T22:13:10;5.47;;;2.45;;
43118;SDS011;28729;49.838;8.650;2023-12-20T22:17:15;4.55;;;2.40;;
43118;SDS011;28729;49.838;8.650;2023-12-20T22:21:18;4.53;;;2.00;;
43118;SDS011;28729;49.838;8.650;2023-12-20T22:25:20;6.45;;;2.00;;
43118;SDS011;28729;49.838;8.650;2023-12-20T22:29:22;7.53;;;3.00;;
43118;SDS011;28729;49.838;8.650;2023-12-20T22:33:30;9.40;;;3.55;;
43118;SDS011;28729;49.838;8.650;2023-12-20T22:37:32;7.38;;;2.85;;
43118;SDS011;28729;49.838;8.650;2023-12-20T22:41:35;3.13;;;2.22;;
43118;SDS011;28729;49.838;8.650;2023-12-20T22:45:36;8.45;;;2.67;;
43118;SDS011;28729;49.838;8.650;2023-12-20T22:49:41;8.40;;;3.15;;
43118;SDS011;28729;49.838;8.650;2023-12-20T22:53:44;9.20;;;3.25;;
43118;SDS011;28729;49.838;8.650;2023-12-20T22:57:46;6.70;;;3.05;;
43118;SDS011;28729;49.838;8.650;2023-12-20T23:05:53;5.28;;;2.60;;
43118;SDS011;28729;49.838;8.650;2023-12-20T23:09:54;10.30;;;3.33;;
43118;SDS011;28729;49.838;8.650;2023-12-20T23:13:56;9.05;;;2.80;;
43118;SDS011;28729;49.838;8.650;2023-12-20T23:18:10;4.10;;;2.38;;
43118;SDS011;28729;49.838;8.650;2023-12-20T23:22:12;5.53;;;2.70;;
43118;SDS011;28729;49.838;8.650;2023-12-20T23:26:14;6.45;;;3.75;;
43118;SDS011;28729;49.838;8.650;2023-12-20T23:30:17;7.33;;;2.50;;
43118;SDS011;28729;49.838;8.650;2023-12-20T23:34:19;8.68;;;2.47;;
43118;SDS011;28729;49.838;8.650;2023-12-20T23:38:21;7.63;;;2.60;;
43118;SDS011;28729;49.838;8.650;2023-12-20T23:42:23;4.57;;;2.10;;
43118;SDS011;28729;49.838;8.650;2023-12-20T23:46:26;8.13;;;2.00;;
43118;SDS011;28729;49.838;8.650;2023-12-20T23:50:28;6.37;;;2.00;;
43118;SDS011;28729;49.838;8.650;2023-12-20T23:54:30;4.40;;;2.05;;
43118;SDS011;28729;49.838;8.650;2023-12-20T23:58:32;4.30;;;1.92;;
